Terschelling Hoorn, Netherlands

11:52 PM CEST on August 21, 2014 (GMT +0200)
IFRIESLA50 | Change Station
CLOSE
Current Station
Personal Weather Station
Location: Dongjum, FRIESLAND
Elevation: 0 ft
Nearby Weather Stations

Elev 0 ft 53.21 °N, 5.54 °E | Updated 7 minutes ago

Mostly Cloudy
Mostly Cloudy
55.7 °F
Feels Like 55.7 °F
N
5.0
Wind Variable Wind from South
Gusts 9.0 mph

Today
High -- | Low -- °F
--% Chance of Precip.
Yesterday
High -- | Low -- °F
Precip. -- in
6:28 AM 8:53 PM
Waning Crescent, 12% visible
Pressure 29.83 in
Visibility 6.2 miles
Clouds Few 3400 ft
Scattered Clouds 3900 ft
Mostly Cloudy 7700 ft
Dew Point 52 °F
Humidity 86%
Rainfall 0.03 in
Snow Depth Not available.
UV 0.0 out of 12
Pollen Not available.
Air Quality Not available.
Flu Activity Not available.
METAR EHVL 212125Z AUTO 23018KT 9999 FEW034 SCT039 BKN077 15/10 Q1010 BLU

More Conditions Fewer Conditions

Pressure 29.83 in
Visibility 6.2 miles
Clouds Few 3400 ft
Scattered Clouds 3900 ft
Mostly Cloudy 7700 ft
Dew Point 52 °F
Humidity 86%
Rainfall 0.03 in
Snow Depth Not available.
UV 0.0 out of 12
Pollen Not available.
Air Quality Not available.
Flu Activity Not available.
METAR EHVL 212125Z AUTO 23018KT 9999 FEW034 SCT039 BKN077 15/10 Q1010 BLU

More Conditions Fewer Conditions

10-Day Weather Forecast

Almanac

Astronomy

Aug. 21, 2014 Rise Set
Actual Time 6:28 AM CEST 8:53 PM CEST
Civil Twilight 5:49 AM CEST 9:32 PM CEST
Nautical Twilight 5:00 AM CEST 10:21 PM CEST
Astronomical Twilight 4:01 AM CEST 11:19 PM CEST
Moon 2:30 AM CEST 6:24 PM CEST
Length of Visible Light 15h 42m
Length of Day
14h 25m
Tomorrow will be 3m 59s shorter.
Waning Crescent, 12% of the Moon is Illuminated
Today
Waning Crescent
Aug 25
New
Sep 2
First Quarter
Sep 8
Full
Sep 15
Last Quarter

Today's Extremes

Country Highs Country Lows

Community

WunderPhotos

Upload Photos

1,746,021 photos uploaded!

WunderBlogs® & News

Nearby

Snow Depth

Not available.

Earthquake Activity

City Distance Mag. Time & Date
No recent earthquake activity has been reported nearby.
Minimum magnitude displayed is 2.5.

Coastal Water Temperatures

Place Temperature
No Stations Reporting

Nearby Weather Stations